Time;durP1;ratioP1;P1;durP2;ratioP2;P2;SDS_P1;SDS_P2;PMS_P1;PMS_P2;Temp;Humidity;BMP_temperature;BMP_pressure;BME280_temperature;BME280_humidity;BME280_pressure;Samples;Min_cycle;Max_cycle;Signal;HPM_P1;HPM_P2
2022/09/15 00:02:14;;;;;;;5.93;2.63;;;17.10;99.90;;;;;;21053888;28;20520;-83
2022/09/15 00:12:15;;;;;;;11.50;2.10;;;17.10;99.90;;;;;;21038592;28;20510;-82
2022/09/15 00:22:19;;;;;;;3.22;1.92;;;17.00;99.90;;;;;;21053792;28;20534;-82
2022/09/15 00:32:20;;;;;;;6.93;1.90;;;16.90;99.90;;;;;;21053296;28;20627;-83
2022/09/15 00:42:21;;;;;;;5.20;2.10;;;16.90;99.90;;;;;;21037014;28;20043;-82
2022/09/15 00:52:29;;;;;;;;;;;16.70;99.90;;;;;;21037066;28;20036;-83
2022/09/15 01:02:34;;;;;;;10.98;2.90;;;16.70;99.90;;;;;;21052717;28;19947;-84
2022/09/15 01:12:35;;;;;;;5.82;3.72;;;16.70;99.90;;;;;;21057971;28;20040;-82
2022/09/15 01:23:06;;;;;;;8.20;4.17;;;16.50;99.90;;;;;;21051628;28;20047;-82
2022/09/15 01:33:29;;;;;;;12.23;3.33;;;16.50;99.90;;;;;;21066992;28;20048;-83
2022/09/15 01:43:34;;;;;;;8.17;3.53;;;16.40;99.90;;;;;;21049149;28;20135;-83
2022/09/15 01:53:36;;;;;;;11.10;4.00;;;16.20;99.90;;;;;;21049988;28;20269;-83
2022/09/15 02:03:54;;;;;;;5.17;3.53;;;15.90;99.90;;;;;;21048243;28;20051;-83
2022/09/15 02:14:16;;;;;;;9.00;3.28;;;15.70;99.90;;;;;;21045499;28;20293;-83
2022/09/15 02:24:22;;;;;;;5.43;2.80;;;15.50;99.90;;;;;;21062159;28;20143;-83
2022/09/15 02:34:30;;;;;;;7.30;2.65;;;15.70;99.90;;;;;;21079106;28;20043;-83
2022/09/15 02:44:31;;;;;;;12.07;3.15;;;15.70;99.90;;;;;;21060593;28;20070;-83
2022/09/15 02:54:32;;;;;;;14.63;4.40;;;15.50;99.90;;;;;;21059735;28;20040;-83
2022/09/15 03:04:32;;;;;;;3.50;2.17;;;15.70;99.90;;;;;;21059011;28;20044;-84
2022/09/15 03:14:34;;;;;;;10.97;3.87;;;15.60;99.90;;;;;;20887778;22;20141;-76
2022/09/15 03:24:36;;;;;;;27.20;6.25;;;15.70;99.90;;;;;;20836449;28;20088;-76
2022/09/15 03:34:36;;;;;;;234.88;14.98;;;15.70;99.90;;;;;;20827102;28;20167;-78
2022/09/15 03:44:37;;;;;;;28.83;10.63;;;15.80;99.90;;;;;;20827406;28;20129;-78
2022/09/15 03:54:38;;;;;;;31.50;10.23;;;15.80;99.90;;;;;;20828361;28;20400;-77
2022/09/15 04:04:40;;;;;;;56.47;10.65;;;15.80;99.90;;;;;;20816271;28;20404;-78
2022/09/15 04:14:41;;;;;;;26.80;8.52;;;15.80;99.90;;;;;;20748443;28;20113;-78
2022/09/15 04:24:42;;;;;;;20.47;7.90;;;15.70;99.90;;;;;;20738134;28;20061;-77
2022/09/15 04:34:43;;;;;;;22.15;8.82;;;15.60;99.90;;;;;;20770791;28;20048;-77
2022/09/15 04:44:44;;;;;;;25.17;9.27;;;15.60;99.90;;;;;;20750998;28;20511;-77
2022/09/15 04:54:45;;;;;;;20.63;7.83;;;15.70;99.90;;;;;;20762239;28;20042;-77
2022/09/15 05:04:47;;;;;;;21.03;9.63;;;15.70;99.90;;;;;;20772170;28;20069;-78
2022/09/15 05:14:48;;;;;;;25.73;11.10;;;15.60;99.90;;;;;;20761782;28;20034;-78
2022/09/15 05:24:49;;;;;;;28.43;11.53;;;15.60;99.90;;;;;;20749395;28;20038;-76
2022/09/15 05:34:50;;;;;;;21.67;9.70;;;15.60;99.90;;;;;;20747708;28;20049;-77
2022/09/15 05:44:51;;;;;;;15.23;8.80;;;15.70;99.90;;;;;;20759049;28;20030;-77
2022/09/15 05:54:51;;;;;;;12.60;7.10;;;15.70;99.90;;;;;;20760948;28;20088;-77
2022/09/15 06:04:52;;;;;;;11.63;5.20;;;15.70;99.90;;;;;;20739916;28;20053;-77
2022/09/15 06:14:53;;;;;;;8.00;4.73;;;15.90;99.90;;;;;;20760785;28;20038;-78
2022/09/15 06:24:54;;;;;;;10.73;3.53;;;16.10;99.90;;;;;;20758934;28;20136;-77
2022/09/15 06:34:54;;;;;;;9.53;3.77;;;16.30;99.90;;;;;;20743332;28;20415;-78
2022/09/15 06:44:55;;;;;;;9.33;2.77;;;16.40;99.90;;;;;;20770111;28;20037;-77
2022/09/15 06:54:56;;;;;;;7.10;2.17;;;16.40;99.90;;;;;;20769180;28;20046;-78
2022/09/15 07:04:57;;;;;;;6.43;2.03;;;16.50;99.90;;;;;;20854088;28;20128;-78
2022/09/15 07:14:58;;;;;;;2.87;1.53;;;16.60;99.90;;;;;;20853989;28;20083;-77
2022/09/15 07:24:59;;;;;;;4.63;1.67;;;16.50;99.90;;;;;;20851527;28;20284;-76
2022/09/15 07:35:02;;;;;;;3.10;1.77;;;16.50;99.90;;;;;;20856227;28;20033;-77
2022/09/15 07:45:03;;;;;;;7.23;3.63;;;16.40;99.90;;;;;;20830446;28;20585;-76
2022/09/15 07:55:05;;;;;;;5.72;2.65;;;16.30;99.90;;;;;;20827347;28;20280;-76
2022/09/15 08:05:06;;;;;;;8.35;2.90;;;16.40;99.90;;;;;;20808697;28;20041;-77
2022/09/15 08:15:07;;;;;;;6.40;3.13;;;16.40;99.90;;;;;;20827269;28;20045;-77
2022/09/15 08:25:08;;;;;;;;;;;16.40;99.90;;;;;;20845289;28;20049;-77
2022/09/15 08:35:09;;;;;;;8.38;3.15;;;16.50;99.90;;;;;;20870356;28;19958;-77
2022/09/15 08:45:45;;;;;;;6.57;2.93;;;16.50;99.90;;;;;;20860122;28;20044;-76
2022/09/15 08:55:51;;;;;;;11.18;3.50;;;16.80;99.90;;;;;;20842781;28;20403;-77
2022/09/15 09:16:32;;;;;;;6.07;3.33;;;17.40;99.90;;;;;;20863837;28;20057;-76
2022/09/15 09:26:35;;;;;;;8.40;3.90;;;17.30;99.90;;;;;;20856920;28;20458;-76
2022/09/15 09:36:36;;;;;;;8.15;3.38;;;17.50;99.90;;;;;;20852001;28;20183;-78
2022/09/15 09:46:37;;;;;;;7.40;3.77;;;17.60;99.90;;;;;;20844845;28;20380;-78
2022/09/15 09:56:39;;;;;;;5.03;2.80;;;17.90;99.90;;;;;;20868238;28;20045;-78
2022/09/15 10:06:40;;;;;;;2.63;1.70;;;18.40;99.90;;;;;;20858620;28;20038;-79
2022/09/15 10:16:41;;;;;;;2.60;1.87;;;19.60;99.90;;;;;;20861578;28;20042;-79
2022/09/15 10:26:43;;;;;;;3.13;1.73;;;19.40;99.90;;;;;;20853110;28;20099;-77
2022/09/15 10:36:44;;;;;;;4.38;2.13;;;18.80;99.90;;;;;;20837819;28;20037;-77
2022/09/15 10:46:51;;;;;;;;;;;18.50;99.90;;;;;;20861617;28;20048;-78
2022/09/15 10:57:16;;;;;;;2.88;1.40;;;17.90;99.90;;;;;;20854100;28;19909;-77
2022/09/15 11:07:45;;;;;;;2.20;1.40;;;17.80;99.90;;;;;;20827113;28;20041;-78
2022/09/15 11:18:05;;;;;;;3.60;1.23;;;17.90;99.90;;;;;;20836398;28;20042;-76
2022/09/15 11:28:22;;;;;;;3.65;1.38;;;17.80;99.90;;;;;;20832648;28;20045;-78
2022/09/15 11:38:58;;;;;;;2.97;1.77;;;18.20;99.90;;;;;;20842701;28;20038;-78
2022/09/15 11:49:06;;;;;;;3.13;1.63;;;18.10;99.90;;;;;;20859860;28;20037;-78
2022/09/15 11:59:19;;;;;;;3.70;1.60;;;18.70;99.90;;;;;;20840403;28;20049;-77
2022/09/15 12:09:21;;;;;;;5.57;1.77;;;19.70;99.90;;;;;;20858172;28;20048;-77
2022/09/15 12:19:24;;;;;;;;;;;19.10;99.90;;;;;;20845524;28;20156;-78
2022/09/15 12:29:25;;;;;;;4.65;1.70;;;18.80;99.90;;;;;;20843751;28;19912;-78
2022/09/15 12:39:35;;;;;;;3.17;1.30;;;19.00;99.90;;;;;;20855492;28;20040;-78
2022/09/15 12:49:42;;;;;;;1.42;0.98;;;20.00;99.90;;;;;;20834702;28;20061;-77
2022/09/15 12:59:43;;;;;;;2.38;1.52;;;19.50;99.90;;;;;;20839515;28;20044;-77
2022/09/15 13:10:09;;;;;;;3.57;1.30;;;19.50;99.90;;;;;;20834787;28;20128;-76
2022/09/15 13:20:16;;;;;;;3.45;1.60;;;18.90;99.90;;;;;;20847732;28;20132;-77
2022/09/15 13:30:40;;;;;;;1.80;1.42;;;18.40;99.90;;;;;;20846413;28;20057;-77
2022/09/15 13:41:09;;;;;;;2.97;1.30;;;18.30;99.90;;;;;;20847233;28;20045;-77
2022/09/15 13:51:24;;;;;;;6.85;1.00;;;19.10;99.90;;;;;;20837538;28;20041;-77
2022/09/15 14:01:25;;;;;;;2.22;0.93;;;20.60;99.90;;;;;;20827066;28;20116;-78
2022/09/15 14:11:32;;;;;;;4.57;1.40;;;20.50;99.90;;;;;;20845069;28;20049;-78
2022/09/15 14:21:33;;;;;;;1.75;1.20;;;19.70;99.90;;;;;;20843920;28;20276;-78
2022/09/15 14:31:37;;;;;;;6.15;1.17;;;19.80;99.90;;;;;;20819323;28;20042;-77
2022/09/15 14:41:39;;;;;;;1.55;0.98;;;19.50;99.90;;;;;;20812654;28;20041;-77
2022/09/15 14:51:43;;;;;;;;;;;19.20;99.90;;;;;;20898796;28;20502;-78
2022/09/15 15:01:51;;;;;;;2.40;1.50;;;19.00;99.90;;;;;;20874936;28;19932;-78
2022/09/15 15:11:59;;;;;;;6.07;1.90;;;18.90;99.90;;;;;;20955883;22;20194;-74
2022/09/15 15:22:26;;;;;;;2.92;2.20;;;18.60;99.90;;;;;;20925110;28;20069;-74
2022/09/15 15:32:33;;;;;;;4.40;2.58;;;18.20;99.90;;;;;;20907076;28;20503;-74
2022/09/15 15:42:34;;;;;;;5.88;2.50;;;18.10;99.90;;;;;;20907206;28;20052;-74
2022/09/15 15:52:34;;;;;;;3.53;2.10;;;17.90;99.90;;;;;;20907078;28;20033;-73
2022/09/15 16:02:35;;;;;;;4.70;3.00;;;17.80;99.90;;;;;;20888342;28;20127;-72
2022/09/15 16:12:36;;;;;;;5.33;3.03;;;17.50;99.90;;;;;;20901640;28;20712;-74
2022/09/15 16:22:39;;;;;;;9.30;5.07;;;17.60;99.90;;;;;;20906379;28;20194;-73
2022/09/15 16:32:40;;;;;;;6.65;4.70;;;17.60;99.90;;;;;;20906192;28;20040;-72
2022/09/15 16:42:40;;;;;;;6.83;4.17;;;17.50;99.90;;;;;;20892040;28;20041;-73
2022/09/15 16:52:41;;;;;;;8.93;5.07;;;17.40;99.90;;;;;;20922431;28;20033;-73
2022/09/15 17:02:42;;;;;;;8.57;4.30;;;17.40;99.90;;;;;;20922056;28;20041;-73
2022/09/15 17:12:43;;;;;;;6.90;3.77;;;17.40;99.90;;;;;;20917671;28;20037;-73
2022/09/15 17:22:45;;;;;;;6.03;3.93;;;17.40;99.90;;;;;;20916824;28;20506;-73
2022/09/15 17:32:46;;;;;;;4.20;2.83;;;17.40;99.90;;;;;;20900591;28;20040;-72
2022/09/15 17:42:47;;;;;;;4.70;2.07;;;17.30;99.90;;;;;;20917826;28;20135;-73
2022/09/15 17:52:49;;;;;;;3.80;2.25;;;17.20;99.90;;;;;;20916041;28;20076;-72
2022/09/15 18:02:51;;;;;;;;;;;17.00;99.90;;;;;;20898872;28;20049;-72
2022/09/15 18:12:53;;;;;;;4.50;2.50;;;17.00;99.90;;;;;;20915760;28;19913;-73
2022/09/15 18:22:55;;;;;;;3.60;2.63;;;16.90;99.90;;;;;;20915045;28;20045;-73
2022/09/15 18:32:57;;;;;;;7.30;4.40;;;16.90;99.90;;;;;;20914379;28;20512;-73
2022/09/15 18:42:58;;;;;;;5.47;2.83;;;16.80;99.90;;;;;;20913365;28;20037;-73
2022/09/15 18:52:59;;;;;;;9.60;2.87;;;16.80;99.90;;;;;;20912623;28;20060;-73
2022/09/15 19:03:02;;;;;;;4.43;2.50;;;17.00;99.90;;;;;;20910634;28;20041;-73
2022/09/15 19:13:03;;;;;;;2.63;2.10;;;17.00;99.90;;;;;;20910931;28;20102;-73
2022/09/15 19:23:04;;;;;;;4.00;3.00;;;17.10;99.90;;;;;;20895276;28;20119;-73
2022/09/15 19:33:05;;;;;;;4.60;3.57;;;17.10;99.90;;;;;;20900025;28;20060;-73
2022/09/15 19:43:06;;;;;;;7.37;2.50;;;16.80;99.90;;;;;;20907837;28;20099;-73
2022/09/15 19:53:06;;;;;;;12.13;4.17;;;16.70;99.90;;;;;;20906052;28;20033;-73
2022/09/15 20:03:07;;;;;;;4.07;2.40;;;16.40;99.90;;;;;;20902017;28;20563;-74
2022/09/15 20:13:08;;;;;;;4.13;2.70;;;15.80;99.90;;;;;;20902058;28;20056;-76
2022/09/15 20:23:09;;;;;;;7.03;2.43;;;15.50;99.90;;;;;;20903191;28;20091;-76
2022/09/15 20:33:09;;;;;;;6.27;2.87;;;15.60;99.90;;;;;;20904240;28;20499;-75
2022/09/15 20:43:11;;;;;;;7.73;3.13;;;15.20;99.90;;;;;;20900028;28;20025;-75
2022/09/15 20:53:11;;;;;;;2.67;2.23;;;15.10;99.90;;;;;;20886390;28;20041;-75
2022/09/15 21:03:15;;;;;;;9.57;2.83;;;15.10;99.90;;;;;;20904099;28;20055;-75
2022/09/15 21:13:17;;;;;;;9.75;2.97;;;15.30;99.90;;;;;;21048217;22;20185;-75
2022/09/15 21:23:18;;;;;;;5.93;3.17;;;15.20;99.90;;;;;;21083738;28;20086;-75
2022/09/15 21:33:20;;;;;;;8.90;3.80;;;15.20;99.90;;;;;;21060693;28;20039;-75
2022/09/15 21:43:21;;;;;;;5.97;3.40;;;15.20;99.90;;;;;;21078258;28;20516;-75
2022/09/15 21:53:22;;;;;;;7.93;3.27;;;15.00;99.90;;;;;;21006184;28;20111;-75
2022/09/15 22:03:23;;;;;;;5.90;2.73;;;14.90;99.90;;;;;;21028148;28;20119;-75
2022/09/15 22:13:23;;;;;;;5.03;3.67;;;14.90;99.90;;;;;;21062545;28;20051;-75
2022/09/15 22:23:24;;;;;;;9.40;2.97;;;15.10;99.90;;;;;;21082148;28;20036;-75
2022/09/15 22:33:25;;;;;;;9.23;3.00;;;14.90;99.90;;;;;;21081313;28;20038;-75
2022/09/15 22:43:26;;;;;;;6.10;3.00;;;14.90;99.90;;;;;;21079845;28;20046;-75
2022/09/15 22:53:27;;;;;;;5.77;2.50;;;14.90;99.90;;;;;;21079700;28;20070;-75
2022/09/15 23:03:28;;;;;;;3.73;2.40;;;14.80;99.90;;;;;;21060682;28;20486;-75
2022/09/15 23:13:29;;;;;;;5.07;2.57;;;14.90;99.90;;;;;;21078151;28;20419;-75
2022/09/15 23:23:30;;;;;;;5.33;2.97;;;14.80;99.90;;;;;;21078070;28;20032;-75
2022/09/15 23:33:31;;;;;;;7.43;3.50;;;14.70;99.90;;;;;;21077012;28;20039;-75
2022/09/15 23:43:32;;;;;;;5.83;3.93;;;14.40;99.90;;;;;;21076113;28;20032;-75
2022/09/15 23:53:34;;;;;;;4.53;3.40;;;14.30;99.90;;;;;;21078601;28;20063;-74
